Rochester Hills, Michigan
Current Conditions -  °F | °C
As of 10:16 AM on Monday 24 Nov 2014 (Local Time) from KVLL Reporting Station
Light Rain Light Rain  
Wind Chill: 57°   Ceiling: 4200
Heat Index: 57°   Visibility: 5mi
Dew Point: 52°   Wind: 22mph
Humidity: 82%   Direction: 190°S
Pressure: 29.14"   Gusts: 31mph
Location:  42.66°N, 83.16°W
Report Text: KVLL 241516Z AUTO 19019G27KT 5SM -RA SCT025 BKN042 OVC065 14/11 A2914 RMK AO2
Loading
Personal Weather Stations






























Interactive Weather Map New forecast layout! Learn more

10-Day Weather Forecast

Advertisements
Track Severe Weather on mobile